• Join FlightAware (Why Join?)
  • Login
  • US Flag 
Gobble Gobble! 
06:55AM EST


 

Airport Tracker/Info


-or-


 

Live Flight TrackerFlight Track Log ✈ SWA419 ✈ 03-May-2013 ✈ KBWI - KSAT

Flight Track Log - Related Links

Times and Time Zones

All times are in EDT time to prevent confusion due to time zone crossing. See the SWA419 flight status page for this flight to view local times or setup timezone preferences in your user account.

Time Position Orientation Groundspeed Altitude Reporting Facility
EDT Latitude Longitude Course Direction KTS MPH feet Rate Location/Type
02:18PM 39.1667 -76.7500 303° West 234 269 4,900  Level Potomac TRACON
02:19PM 39.1833 -76.8500 282° West 292 336 7,800 3,420 Climbing Potomac TRACON
02:20PM 39.2167 -76.9667 290° West 309 356 11,800 2,940 Climbing Potomac TRACON
02:21PM 39.2167 -77.0833 270° West 368 423 13,700 2,160 Climbing Potomac TRACON
02:22PM 38.9947 -77.3379 252° West  Level FlightAware Approximate
02:23PM 39.0956 -77.2658 230° Southwest 366 421 18,300  Level Washington Center
02:23PM 39.0542 -77.4011 249° West 389 448 20,900 2,520 Climbing Washington Center
02:24PM 39.0183 -77.5447 252° West 411 473 23,300 2,460 Climbing Washington Center
02:25PM 38.9803 -77.7039 253° West 426 490 25,900 2,100 Climbing Washington Center
02:27PM 38.9489 -77.8364 253° West 434 499 27,600 1,620 Climbing Washington Center
02:28PM 38.9058 -78.0058 252° West 443 510 29,200 1,860 Climbing Washington Center
02:28PM 38.8672 -78.1564 252° West 448 516 31,400 2,220 Climbing Washington Center
02:29PM 38.8514 -78.3078 262° West 443 510 33,600 1,680 Climbing Washington Center
02:31PM 38.8500 -78.4572 269° West 432 497 34,900 1,320 Climbing Washington Center
02:32PM 38.8506 -78.6064 270° West 425 489 36,400 1,380 Climbing Washington Center
02:32PM 38.8489 -78.7531 269° West 420 483 37,700 780 Climbing Washington Center
02:34PM 38.8389 -78.8964 265° West 420 483 38,000 120 Climbing Washington Center
02:35PM 38.8161 -79.0419 259° West 420 483 38,000  Level Washington Center
02:36PM 38.7931 -79.1847 258° West 420 483 38,000  Level Washington Center
02:36PM 38.7744 -79.3169 260° West 420 483 38,000  Level Washington Center
02:37PM 38.7486 -79.4728 258° West 425 489 38,000  Level Washington Center
02:39PM 38.7272 -79.6128 259° West 418 481 38,000  Level Washington Center
02:40PM 38.7036 -79.7550 258° West 412 474 38,000  Level Washington Center
02:41PM 38.6828 -79.8789 258° West 407 468 38,000  Level Washington Center
02:43PM 38.6319 -80.1614 257° West 408 470 38,000  Level Indianapolis Center
02:44PM 38.6075 -80.3025 258° West 407 468 38,000  Level Indianapolis Center
02:45PM 38.5792 -80.4714 258° West 405 466 38,000  Level Indianapolis Center
02:46PM 38.5542 -80.6158 258° West 413 475 38,000  Level Indianapolis Center
02:47PM 38.5297 -80.7589 258° West 413 475 38,000  Level Indianapolis Center
02:48PM 38.5053 -80.9025 258° West 413 475 38,000  Level Indianapolis Center
02:49PM 38.4797 -81.0469 257° West 415 478 38,000  Level Indianapolis Center
02:50PM 38.4536 -81.1939 257° West 421 484 38,000  Level Indianapolis Center
02:51PM 38.4267 -81.3425 257° West 426 490 38,000  Level Indianapolis Center
02:52PM 38.4003 -81.4894 257° West 422 486 38,000  Level Indianapolis Center
02:53PM 38.3686 -81.6661 257° West 420 483 38,000  Level Indianapolis Center
02:54PM 38.3386 -81.8119 255° West 424 488 38,000  Level Indianapolis Center
02:55PM 38.2994 -81.9533 251° West 423 487 38,000  Level Indianapolis Center
02:56PM 38.2592 -82.0931 250° West 422 486 38,000  Level Indianapolis Center
02:57PM 38.2194 -82.2342 250° West 423 487 38,000  Level Indianapolis Center
02:58PM 38.1800 -82.3725 250° West 418 481 38,000  Level Indianapolis Center
02:59PM 38.1378 -82.5211 250° West 419 482 38,000  Level Indianapolis Center
03:00PM 38.0981 -82.6594 250° West 418 481 38,000  Level Indianapolis Center
03:01PM 38.0514 -82.8206 250° West 418 481 38,000  Level Indianapolis Center
03:02PM 38.0106 -82.9581 249° West 418 481 38,000  Level Indianapolis Center
03:04PM 37.9294 -83.2350 250° West 420 483 38,000  Level Indianapolis Center
03:05PM 37.8886 -83.3731 249° West 420 483 38,000  Level Indianapolis Center
03:06PM 37.8406 -83.5375 250° West 426 490 38,000  Level Indianapolis Center
03:07PM 37.7989 -83.6761 249° West 423 487 38,000  Level Indianapolis Center
03:08PM 37.7567 -83.8161 249° West 425 489 38,000  Level Indianapolis Center
03:09PM 37.7142 -83.9567 249° West 428 493 38,000  Level Indianapolis Center
03:10PM 37.6719 -84.0958 249° West 427 491 38,000  Level Indianapolis Center
03:12PM 37.6222 -84.2583 249° West 427 491 38,000  Level Indianapolis Center
03:13PM 37.5800 -84.3956 249° West 422 486 38,000  Level Indianapolis Center
03:14PM 37.5381 -84.5344 249° West 423 487 38,000  Level Indianapolis Center
03:15PM 37.4933 -84.6722 248° West 424 488 38,000  Level Indianapolis Center
03:16PM 37.4517 -84.8097 249° West 422 486 38,000  Level Indianapolis Center
03:17PM 37.4014 -84.9706 249° West 425 489 38,000  Level Indianapolis Center
03:18PM 37.3594 -85.1081 249° West 423 487 38,000  Level Indianapolis Center
03:19PM 37.3158 -85.2450 248° West 422 486 38,000  Level Indianapolis Center
03:20PM 37.2719 -85.3836 248° West 423 487 38,000  Level Indianapolis Center
03:21PM 37.2267 -85.5233 248° West 426 490 38,000  Level Indianapolis Center
03:22PM 37.1825 -85.6631 248° West 427 491 38,000  Level Indianapolis Center
03:22PM 37.1583 -85.7372 248° West 430 495 38,000  Level Memphis Center
03:23PM 37.1156 -85.8750 249° West 430 495 38,000  Level Memphis Center
03:24PM 37.0722 -86.0100 248° West 423 487 38,000  Level Memphis Center
03:25PM 37.0269 -86.1450 247° West 423 487 38,000  Level Memphis Center
03:26PM 36.9817 -86.2822 248° West 423 487 38,000  Level Memphis Center
03:27PM 36.9400 -86.4142 248° West 418 481 38,000  Level Memphis Center
03:28PM 36.8792 -86.5364 238° Southwest 412 474 38,000  Level Memphis Center
03:29PM 36.8183 -86.6586 238° Southwest 424 488 38,000  Level Memphis Center
03:30PM 36.7631 -86.7672 238° Southwest 424 488 38,000  Level Memphis Center
03:31PM 36.7000 -86.8919 238° Southwest 424 488 38,000  Level Memphis Center
03:32PM 36.6367 -87.0108 236° Southwest 424 488 38,000  Level Memphis Center
03:33PM 36.5753 -87.1322 238° Southwest 419 482 38,000  Level Memphis Center
03:34PM 36.5117 -87.2511 236° Southwest 419 482 38,000  Level Memphis Center
03:35PM 36.4497 -87.3694 237° Southwest 419 482 38,000  Level Memphis Center
03:36PM 36.3858 -87.4878 236° Southwest 419 482 38,000  Level Memphis Center
03:37PM 36.3219 -87.6111 237° Southwest 419 482 38,000  Level Memphis Center
03:38PM 36.2600 -87.7264 236° Southwest 419 482 38,000  Level Memphis Center
03:39PM 36.1978 -87.8467 237° Southwest 419 482 38,000  Level Memphis Center
03:40PM 36.1311 -87.9619 234° Southwest 419 482 38,000  Level Memphis Center
03:41PM 36.0650 -88.0947 238° Southwest 419 482 38,000  Level Memphis Center
03:42PM 36.0003 -88.2069 235° Southwest 414 476 38,000  Level Memphis Center
03:43PM 35.9333 -88.3267 235° Southwest 414 476 38,000  Level Memphis Center
03:44PM 35.8686 -88.4486 237° Southwest 425 489 38,000  Level Memphis Center
03:45PM 35.8139 -88.5447 235° Southwest 425 489 38,000  Level Memphis Center
03:46PM 35.7447 -88.6714 236° Southwest 425 489 38,000  Level Memphis Center
03:47PM 35.6794 -88.7878 235° Southwest 425 489 38,000  Level Memphis Center
03:48PM 35.6122 -88.9219 238° Southwest 420 483 38,000  Level Memphis Center
03:49PM 35.5467 -89.0353 235° Southwest 420 483 38,000  Level Memphis Center
03:50PM 35.4833 -89.1536 237° Southwest 420 483 38,000  Level Memphis Center
03:51PM 35.4217 -89.2639 236° Southwest 412 474 38,000  Level Memphis Center
03:52PM 35.3581 -89.3769 235° Southwest 412 474 38,000  Level Memphis Center
03:53PM 35.2942 -89.4894 235° Southwest 406 467 38,000  Level Memphis Center
03:54PM 35.2303 -89.6072 236° Southwest 406 467 38,000  Level Memphis Center
03:55PM 35.1683 -89.7219 237° Southwest 406 467 38,000  Level Memphis Center
03:56PM 35.1042 -89.8367 236° Southwest 411 473 38,000  Level Memphis Center
03:57PM 35.0381 -89.9539 235° Southwest 416 479 38,000  Level Memphis Center
03:58PM 34.9714 -90.0631 233° Southwest 415 478 38,000  Level Memphis Center
03:59PM 34.9008 -90.1722 232° Southwest 410 472 38,000  Level Memphis Center
04:00PM 34.8342 -90.2761 232° Southwest 405 466 38,000  Level Memphis Center
04:01PM 34.7675 -90.3825 233° Southwest 405 466 38,000  Level Memphis Center
04:02PM 34.7089 -90.4783 233° Southwest 399 459 38,000  Level Memphis Center
04:03PM 34.6419 -90.5819 232° Southwest 399 459 38,000  Level Memphis Center
04:04PM 34.5772 -90.6875 233° Southwest 392 451 38,000  Level Memphis Center
04:05PM 34.5122 -90.7983 235° Southwest 397 457 38,000  Level Memphis Center
04:06PM 34.4450 -90.9011 232° Southwest 397 457 38,000  Level Memphis Center
04:07PM 34.3778 -91.0089 233° Southwest 397 457 38,000  Level Memphis Center
04:08PM 34.3103 -91.1167 233° Southwest 402 463 38,000  Level Memphis Center
04:09PM 34.2364 -91.2364 233° Southwest 407 468 38,000  Level Memphis Center
04:10PM 34.1647 -91.3411 230° Southwest 407 468 38,000  Level Memphis Center
04:11PM 34.0969 -91.4533 234° Southwest 412 474 38,000  Level Memphis Center
04:12PM 34.0250 -91.5628 232° Southwest 417 480 38,000  Level Memphis Center
04:13PM 33.9550 -91.6744 233° Southwest 422 486 38,000  Level Memphis Center
04:14PM 33.8978 -91.7711 235° Southwest 410 472 38,000  Level Memphis Center
04:15PM 33.8275 -91.8800 232° Southwest 410 472 38,000  Level Memphis Center
04:17PM 33.6986 -92.0708 231° Southwest 403 464 38,000  Level Fort Worth Center
04:18PM 33.6322 -92.1747 233° Southwest 408 470 38,000  Level Fort Worth Center
04:19PM 33.5675 -92.2758 232° Southwest 408 470 38,000  Level Fort Worth Center
04:20PM 33.4986 -92.3794 231° Southwest 403 464 38,000  Level Fort Worth Center
04:21PM 33.4317 -92.4828 232° Southwest 403 464 38,000  Level Fort Worth Center
04:22PM 33.3647 -92.5836 232° Southwest 403 464 38,000  Level Fort Worth Center
04:23PM 33.2956 -92.6867 231° Southwest 403 464 38,000  Level Fort Worth Center
04:24PM 33.2217 -92.7775 226° Southwest 397 457 38,000  Level Fort Worth Center
04:25PM 33.1350 -92.8614 219° Southwest 397 457 38,000  Level Fort Worth Center
04:26PM 33.0483 -92.9453 219° Southwest 402 463 38,000  Level Fort Worth Center
04:27PM 32.9797 -93.0106 219° Southwest 407 468 38,000  Level Fort Worth Center
04:28PM 32.8828 -93.1019 218° Southwest 407 468 38,000  Level Fort Worth Center
04:29PM 32.7958 -93.1853 219° Southwest 407 468 38,000  Level Fort Worth Center
04:30PM 32.7089 -93.2706 220° Southwest 407 468 38,000  Level Fort Worth Center
04:31PM 32.6086 -93.3319 207° Southwest 407 468 38,000  Level Fort Worth Center
04:32PM 32.5042 -93.3933 206° Southwest 407 468 38,000  Level Fort Worth Center
04:33PM 32.4169 -93.4761 219° Southwest 407 468 38,000  Level Fort Worth Center
04:34PM 32.3361 -93.5631 222° Southwest 407 468 38,000  Level Fort Worth Center
04:35PM 32.2511 -93.6503 221° Southwest 407 468 38,000  Level Fort Worth Center
04:36PM 32.1725 -93.7417 225° Southwest 407 468 38,000  Level Fort Worth Center
04:37PM 32.0872 -93.8286 221° Southwest 407 468 38,000  Level Fort Worth Center
04:38PM 32.0042 -93.9175 222° Southwest 412 474 38,000  Level Fort Worth Center
04:39PM 31.9211 -94.0089 223° Southwest 412 474 38,000  Level Fort Worth Center
04:40PM 31.8397 -94.0950 222° Southwest 407 468 38,000  Level Fort Worth Center
04:41PM 31.7544 -94.1811 221° Southwest 407 468 38,000  Level Fort Worth Center
04:43PM 31.5872 -94.3542 221° Southwest 396 456 38,000  Level Houston Center
04:44PM 31.5056 -94.4392 222° Southwest 393 452 38,000  Level Houston Center
04:45PM 31.4219 -94.5253 221° Southwest 397 457 38,000  Level Houston Center
04:46PM 31.3392 -94.6100 221° Southwest 397 457 38,000  Level Houston Center
04:47PM 31.2578 -94.6939 221° Southwest 400 460 38,000  Level Houston Center
04:48PM 31.1572 -94.7975 221° Southwest 402 463 38,000  Level Houston Center
04:49PM 31.0781 -94.8781 221° Southwest 404 465 38,000  Level Houston Center
04:50PM 30.9961 -94.9617 221° Southwest 396 456 38,000  Level Houston Center
04:51PM 30.9144 -95.0456 221° Southwest 392 451 38,000  Level Houston Center
04:52PM 30.8153 -95.1464 221° Southwest 392 451 38,000  Level Houston Center
04:53PM 30.7336 -95.2292 221° Southwest 391 450 38,000  Level Houston Center
04:54PM 30.6514 -95.3125 221° Southwest 390 449 38,000  Level Houston Center
04:55PM 30.5697 -95.3944 221° Southwest 390 449 38,000  Level Houston Center
04:56PM 30.4839 -95.4800 221° Southwest 390 449 38,000  Level Houston Center
04:57PM 30.4031 -95.5631 222° Southwest 390 449 38,000  Level Houston Center
04:58PM 30.3206 -95.6447 221° Southwest 391 450 38,000  Level Houston Center
04:59PM 30.2233 -95.7422 221° Southwest 388 447 38,000  Level Houston Center
05:01PM 30.1422 -95.8239 221° Southwest 388 447 38,000  Level Houston Center
05:02PM 30.0608 -95.9033 220° Southwest 386 444 38,000  Level Houston Center
05:03PM 29.9792 -95.9844 221° Southwest 388 447 38,000  Level Houston Center
05:04PM 29.8961 -96.0661 220° Southwest 386 444 38,000  Level Houston Center
05:05PM 29.8147 -96.1467 221° Southwest 386 444 38,000  Level Houston Center
05:06PM 29.7861 -96.2711 255° West 350 403 38,000  Level Houston Center
05:07PM 29.7939 -96.3822 275° West 349 402 38,000  Level Houston Center
05:08PM 29.8017 -96.4917 275° West 349 402 38,000 -1,020 Level Houston Center
05:09PM 29.8103 -96.6017 275° West 348 400 35,900 -1,980 Descending Houston Center
05:10PM 29.8183 -96.7094 275° West 341 392 33,900 -2,160 Descending Houston Center
05:11PM 29.8275 -96.8389 275° West 342 394 31,500 -2,160 Descending Houston Center
05:12PM 29.8356 -96.9467 275° West 341 392 29,500 -1,920 Descending Houston Center
05:13PM 29.8428 -97.0517 275° West 336 387 27,600 -1,620 Descending Houston Center
05:14PM 29.8497 -97.1550 274° West 329 379 26,200 -1,020 Descending Houston Center
05:15PM 29.8589 -97.2753 275° West 373 429 25,500 -1,500 Descending Houston Center
05:16PM 29.8683 -97.4219 274° West 383 441 23,100 -2,520 Descending Houston Center
05:17PM 29.8769 -97.5475 275° West 371 427 20,300 -2,520 Descending Houston Center
05:18PM 29.8844 -97.6706 274° West 361 415 17,700 -2,580 Descending Houston Center
05:19PM 29.8933 -97.7828 275° West 350 403 14,800 -2,400 Descending Houston Center
05:20PM 29.8847 -97.8908 265° West 349 402 13,000 -1,320 Descending Houston Center
05:21PM 29.8422 -97.9908 244° Southwest 347 399 12,200 -1,020 Descending Houston Center
05:22PM 29.8019 -98.0881 244° Southwest 310 357 10,900 -1,320 Descending Houston Center
05:23PM 29.7664 -98.1697 243° Southwest 278 320 9,600 -1,500 Descending Houston Center
05:24PM 29.7339 -98.2508 245° Southwest 274 315 7,900 -1,500 Descending Houston Center
05:25PM 29.7008 -98.3244 243° Southwest 279 321 6,700 -1,080 Descending Houston Center
05:26PM 29.6528 -98.3931 231° Southwest 273 314 5,900 -780 Descending Houston Center
05:27PM 29.5903 -98.3981 184° South 255 293 5,300 -600 Descending Houston Center
05:27PM 29.5697 -98.4000 185° South 251 289 5,200 -720 Descending Houston Center
05:28PM 29.5297 -98.3814 158° South 216 249 4,600 -1,080 Descending Houston Center
05:28PM 29.5139 -98.3728 155° Southeast 219 252 4,100 -1,380 Descending Houston Center
05:29PM 29.4758 -98.3881 199° South 173 199 3,100 -1,380 Descending Houston Center
05:30PM 29.4939 -98.4242 300° West 123 142 1,700 -1,200 Descending Houston Center
05:31PM 29.5014 -98.4317 319° Northwest 136 157 1,600 -720 Descending Houston Center
05:32PM 29.5286 -98.4661 312° West 134 154 800 -780 Descending Houston Center